Time;durP1;ratioP1;P1;durP2;ratioP2;P2;SDS_P1;SDS_P2;PMS_P1;PMS_P2;Temp;Humidity;BMP_temperature;BMP_pressure;BME280_temperature;BME280_humidity;BME280_pressure;Samples;Min_cycle;Max_cycle;Signal;HPM_P1;HPM_P2
2023/04/07 00:02:06;;;;;;;26.48;20.45;;;8.60;99.90;;;;;;4985846;28;20031;-63
2023/04/07 00:04:32;;;;;;;24.55;18.73;;;8.60;99.90;;;;;;4987409;28;20423;-63
2023/04/07 00:06:58;;;;;;;23.08;18.58;;;8.50;99.90;;;;;;4986471;28;20082;-63
2023/04/07 00:09:23;;;;;;;26.58;20.90;;;8.80;99.90;;;;;;4987607;28;20034;-63
2023/04/07 00:11:50;;;;;;;26.90;21.27;;;9.10;99.90;;;;;;4986759;28;20042;-63
2023/04/07 00:14:16;;;;;;;29.38;20.98;;;9.10;99.90;;;;;;4987341;28;20037;-63
2023/04/07 00:16:42;;;;;;;29.50;21.83;;;9.20;99.90;;;;;;4987538;28;20449;-63
2023/04/07 00:19:07;;;;;;;28.35;22.10;;;9.20;99.90;;;;;;4987741;28;20026;-63
2023/04/07 00:21:33;;;;;;;32.95;22.90;;;9.00;99.90;;;;;;4987454;28;20034;-63
2023/04/07 00:23:58;;;;;;;27.73;21.33;;;9.10;99.90;;;;;;4984914;28;20602;-63
2023/04/07 00:26:30;;;;;;;31.45;22.58;;;9.10;99.90;;;;;;4990310;28;20730;-63
2023/04/07 00:28:56;;;;;;;31.77;23.40;;;9.20;99.90;;;;;;4986571;28;20038;-63
2023/04/07 00:31:22;;;;;;;30.05;23.27;;;9.30;99.90;;;;;;4983540;28;21063;-63
2023/04/07 00:33:48;;;;;;;31.80;23.20;;;9.30;99.90;;;;;;4986482;28;20061;-63
2023/04/07 00:36:14;;;;;;;29.30;22.15;;;9.30;99.90;;;;;;4984052;28;20065;-63
2023/04/07 00:38:39;;;;;;;32.58;24.42;;;9.20;99.90;;;;;;4986781;28;20045;-63
2023/04/07 00:41:05;;;;;;;33.53;24.30;;;9.30;99.90;;;;;;4980598;28;20034;-63
2023/04/07 00:43:31;;;;;;;37.13;24.65;;;9.30;99.90;;;;;;4985845;28;20034;-63
2023/04/07 00:45:56;;;;;;;37.35;26.15;;;9.40;99.90;;;;;;4985613;28;20089;-63
2023/04/07 00:48:22;;;;;;;35.35;26.08;;;9.40;99.90;;;;;;4981232;28;20035;-63
2023/04/07 00:50:48;;;;;;;37.33;27.75;;;9.50;99.90;;;;;;4986359;28;20129;-63
2023/04/07 00:53:14;;;;;;;44.10;28.30;;;9.50;99.90;;;;;;4987822;28;20449;-63
2023/04/07 00:55:40;;;;;;;39.25;27.58;;;9.30;99.90;;;;;;4981875;28;20099;-64
2023/04/07 00:58:08;;;;;;;41.28;27.60;;;9.40;99.90;;;;;;4984054;28;20034;-64
2023/04/07 01:00:47;;;;;;;43.58;29.00;;;9.50;99.90;;;;;;4975221;28;20031;-64
2023/04/07 01:03:24;;;;;;;41.15;27.77;;;9.40;99.90;;;;;;4980962;28;20064;-63
2023/04/07 01:06:01;;;;;;;43.50;28.52;;;9.50;99.90;;;;;;4983199;28;20056;-63
2023/04/07 01:08:32;;;;;;;43.80;28.38;;;9.40;99.90;;;;;;4982129;28;20043;-63
2023/04/07 01:11:21;;;;;;;51.67;30.88;;;9.40;99.90;;;;;;4981114;28;20541;-63
2023/04/07 01:13:51;;;;;;;48.45;31.52;;;9.60;99.90;;;;;;4977426;28;20646;-63
2023/04/07 01:16:24;;;;;;;54.67;34.17;;;9.40;99.90;;;;;;4980648;28;20030;-63
2023/04/07 01:18:53;;;;;;;58.85;34.83;;;9.40;99.90;;;;;;4980932;28;20138;-63
2023/04/07 01:21:21;;;;;;;63.38;37.20;;;9.40;99.90;;;;;;4979385;28;20106;-63
2023/04/07 01:24:08;;;;;;;65.90;37.25;;;9.40;99.90;;;;;;4983916;28;20030;-63
2023/04/07 01:26:34;;;;;;;62.80;36.55;;;9.30;99.90;;;;;;4979943;28;20034;-63
2023/04/07 01:29:14;;;;;;;65.80;36.40;;;9.40;99.90;;;;;;4979044;28;20030;-63
2023/04/07 01:31:41;;;;;;;65.82;37.10;;;9.40;99.90;;;;;;4980856;28;20030;-63
2023/04/07 01:34:11;;;;;;;70.45;38.10;;;9.30;99.90;;;;;;4979267;28;20141;-63
2023/04/07 01:36:37;;;;;;;72.45;38.22;;;9.30;99.90;;;;;;4982121;28;20038;-63
2023/04/07 01:39:03;;;;;;;80.43;40.08;;;9.20;99.90;;;;;;4976739;28;20104;-63
2023/04/07 01:41:30;;;;;;;73.97;37.05;;;9.20;99.90;;;;;;4983409;28;20475;-62
2023/04/07 01:43:56;;;;;;;73.38;37.40;;;9.10;99.90;;;;;;4979171;28;20037;-63
2023/04/07 01:46:22;;;;;;;73.65;39.67;;;9.10;99.90;;;;;;4977942;28;20111;-63
2023/04/07 01:48:48;;;;;;;72.82;38.53;;;9.10;99.90;;;;;;4985191;28;20031;-63
2023/04/07 01:51:17;;;;;;;72.70;38.03;;;9.10;99.90;;;;;;4981304;28;20058;-63
2023/04/07 01:53:47;;;;;;;72.85;38.30;;;9.20;99.90;;;;;;4983542;28;20121;-63
2023/04/07 01:56:13;;;;;;;78.22;39.47;;;9.10;99.90;;;;;;4981196;28;20051;-63
2023/04/07 01:58:39;;;;;;;77.43;39.17;;;9.10;99.90;;;;;;4985286;28;20370;-62
2023/04/07 02:01:05;;;;;;;75.72;38.92;;;9.20;99.90;;;;;;4985861;28;20040;-63
2023/04/07 02:03:39;;;;;;;75.80;38.97;;;9.10;99.90;;;;;;4982644;28;20061;-63
2023/04/07 02:06:07;;;;;;;73.72;37.80;;;9.10;99.90;;;;;;4983205;28;20049;-63
2023/04/07 02:08:35;;;;;;;77.55;39.28;;;9.10;99.90;;;;;;4986256;28;20046;-63
2023/04/07 02:11:02;;;;;;;75.40;39.22;;;9.20;99.90;;;;;;4985240;28;20037;-63
2023/04/07 02:13:29;;;;;;;79.47;40.55;;;9.30;99.90;;;;;;4979378;28;20061;-63
2023/04/07 02:15:56;;;;;;;77.22;39.30;;;9.40;99.90;;;;;;4984387;28;20050;-63
2023/04/07 02:18:24;;;;;;;76.35;39.25;;;9.30;99.90;;;;;;4986257;28;20124;-63
2023/04/07 02:20:51;;;;;;;78.45;39.08;;;9.40;99.90;;;;;;4983068;28;20030;-62
2023/04/07 02:23:17;;;;;;;73.72;38.53;;;9.20;99.90;;;;;;4985131;28;20583;-63
2023/04/07 02:25:43;;;;;;;69.80;36.22;;;9.10;99.90;;;;;;4984885;28;20034;-62
2023/04/07 02:28:08;;;;;;;68.28;34.78;;;9.10;99.90;;;;;;4983208;28;20038;-63
2023/04/07 02:30:35;;;;;;;61.15;32.83;;;9.10;99.90;;;;;;4983339;28;20054;-62
2023/04/07 02:33:01;;;;;;;62.97;32.85;;;9.10;99.90;;;;;;4983407;28;20046;-62
2023/04/07 02:35:26;;;;;;;64.50;31.70;;;8.90;99.90;;;;;;4985440;28;20042;-62
2023/04/07 02:37:52;;;;;;;60.10;33.10;;;9.00;99.90;;;;;;4986062;28;20105;-62
2023/04/07 02:40:18;;;;;;;60.95;32.03;;;9.00;99.90;;;;;;4985506;28;20681;-62
2023/04/07 02:42:43;;;;;;;59.13;33.08;;;8.90;99.90;;;;;;4983903;28;20038;-62
2023/04/07 02:45:10;;;;;;;54.05;31.73;;;8.80;99.90;;;;;;4985124;28;20034;-62
2023/04/07 02:47:36;;;;;;;54.08;28.52;;;8.90;99.90;;;;;;4983930;28;20045;-62
2023/04/07 02:50:03;;;;;;;51.25;29.45;;;8.80;99.90;;;;;;4985127;28;20513;-62
2023/04/07 02:52:28;;;;;;;50.28;26.70;;;8.80;99.90;;;;;;4985956;28;20074;-62
2023/04/07 02:54:54;;;;;;;52.47;28.25;;;8.70;99.90;;;;;;4986434;28;20706;-62
2023/04/07 02:57:19;;;;;;;53.45;27.95;;;8.80;99.90;;;;;;4985336;28;20089;-62
2023/04/07 02:59:45;;;;;;;47.90;26.95;;;8.90;99.90;;;;;;4984881;28;20108;-62
2023/04/07 03:02:11;;;;;;;48.00;25.88;;;8.80;99.90;;;;;;4980036;28;20034;-62
2023/04/07 03:04:36;;;;;;;40.40;23.67;;;8.80;99.90;;;;;;4984164;28;20053;-62
2023/04/07 03:07:02;;;;;;;41.60;24.35;;;8.80;99.90;;;;;;4981535;28;20030;-62
2023/04/07 03:09:27;;;;;;;40.83;23.95;;;8.80;99.90;;;;;;4986482;28;20428;-62
2023/04/07 03:11:53;;;;;;;39.28;23.38;;;9.00;99.90;;;;;;4985892;28;20031;-63
2023/04/07 03:14:19;;;;;;;36.72;23.23;;;9.00;99.90;;;;;;4986324;28;20134;-62
2023/04/07 03:16:45;;;;;;;40.83;24.08;;;9.00;99.90;;;;;;4985718;28;20390;-62
2023/04/07 03:19:10;;;;;;;40.05;23.33;;;9.10;99.90;;;;;;4984597;28;20030;-62
2023/04/07 03:21:37;;;;;;;41.08;23.45;;;9.10;99.90;;;;;;4984964;28;20137;-62
2023/04/07 03:24:03;;;;;;;43.13;23.30;;;9.00;99.90;;;;;;4981107;28;20034;-62
2023/04/07 03:26:29;;;;;;;46.50;24.63;;;8.90;99.90;;;;;;4986647;28;20026;-62
2023/04/07 03:28:55;;;;;;;41.08;23.92;;;8.80;99.90;;;;;;4984720;28;20033;-62
2023/04/07 03:31:21;;;;;;;41.40;23.48;;;8.80;99.90;;;;;;4985355;28;20030;-62
2023/04/07 03:33:48;;;;;;;42.10;24.75;;;8.80;99.90;;;;;;4982967;28;20042;-62
2023/04/07 03:36:14;;;;;;;38.75;23.38;;;8.80;99.90;;;;;;4984154;28;20031;-62
2023/04/07 03:38:39;;;;;;;42.88;25.13;;;8.90;99.90;;;;;;4985364;28;20080;-62
2023/04/07 03:41:05;;;;;;;43.88;24.50;;;8.80;99.90;;;;;;4983139;28;20065;-62
2023/04/07 03:43:31;;;;;;;47.13;24.45;;;8.90;99.90;;;;;;4977291;28;20542;-62
2023/04/07 03:45:56;;;;;;;43.67;25.55;;;9.00;99.90;;;;;;4982819;28;20079;-63
2023/04/07 03:48:22;;;;;;;38.88;24.05;;;9.10;99.90;;;;;;4984055;28;20422;-62
2023/04/07 03:50:48;;;;;;;40.78;23.95;;;9.00;99.90;;;;;;4984801;28;20200;-62
2023/04/07 03:53:15;;;;;;;40.72;23.95;;;8.90;99.90;;;;;;4984714;28;20125;-62
2023/04/07 03:55:41;;;;;;;39.60;24.13;;;9.00;99.90;;;;;;4985314;28;20034;-62
2023/04/07 03:58:07;;;;;;;43.33;24.85;;;9.00;99.90;;;;;;4985944;28;20108;-62
2023/04/07 04:00:33;;;;;;;46.90;25.33;;;9.10;99.90;;;;;;4984746;28;20067;-62
2023/04/07 04:02:59;;;;;;;39.47;23.90;;;9.00;99.90;;;;;;4983521;28;20041;-62
2023/04/07 04:05:25;;;;;;;38.50;21.90;;;8.90;99.90;;;;;;4982437;28;20045;-62
2023/04/07 04:07:51;;;;;;;39.13;22.30;;;8.80;99.90;;;;;;4982309;28;20521;-62
2023/04/07 04:10:17;;;;;;;35.38;21.77;;;8.70;99.90;;;;;;4983209;28;20097;-62
2023/04/07 04:12:43;;;;;;;33.30;20.45;;;8.60;99.90;;;;;;4984396;28;20143;-62
2023/04/07 04:15:09;;;;;;;33.95;20.33;;;8.70;99.90;;;;;;4983723;28;20062;-63
2023/04/07 04:17:35;;;;;;;35.85;20.42;;;8.70;99.90;;;;;;4984342;28;20030;-63
2023/04/07 04:20:01;;;;;;;33.08;19.52;;;8.70;99.90;;;;;;4981190;28;20445;-63
2023/04/07 04:22:26;;;;;;;29.27;18.88;;;8.60;99.90;;;;;;4984101;28;20042;-62
2023/04/07 04:24:52;;;;;;;32.05;18.67;;;8.60;99.90;;;;;;4982744;28;20195;-63
2023/04/07 04:27:17;;;;;;;31.92;17.88;;;8.60;99.90;;;;;;4983433;28;20830;-63
2023/04/07 04:29:43;;;;;;;30.27;17.80;;;8.50;99.90;;;;;;4983388;28;20502;-62
2023/04/07 04:32:09;;;;;;;27.23;16.17;;;8.60;99.90;;;;;;4980357;28;20045;-63
2023/04/07 04:34:35;;;;;;;29.30;16.10;;;8.70;99.90;;;;;;4981590;28;20034;-63
2023/04/07 04:37:00;;;;;;;26.85;14.50;;;8.70;99.90;;;;;;4978833;28;20145;-62
2023/04/07 04:39:26;;;;;;;24.73;14.77;;;8.50;99.90;;;;;;4984049;28;20555;-63
2023/04/07 04:41:51;;;;;;;28.35;14.45;;;8.60;99.90;;;;;;4982370;28;20104;-63
2023/04/07 04:44:17;;;;;;;26.92;14.07;;;8.50;99.90;;;;;;4983783;28;20434;-63
2023/04/07 04:46:42;;;;;;;24.77;13.90;;;8.50;99.90;;;;;;4980198;28;20175;-63
2023/04/07 04:49:08;;;;;;;28.05;14.25;;;8.50;99.90;;;;;;4979143;28;20813;-63
2023/04/07 04:51:34;;;;;;;25.75;13.77;;;8.60;99.90;;;;;;4976578;28;20137;-63
2023/04/07 04:53:59;;;;;;;27.88;14.90;;;8.60;99.90;;;;;;4982489;28;20430;-63
2023/04/07 04:56:25;;;;;;;26.85;15.27;;;8.60;99.90;;;;;;4980675;28;20042;-63
2023/04/07 04:58:51;;;;;;;27.30;13.90;;;8.50;99.90;;;;;;4984393;28;20058;-63
2023/04/07 05:01:16;;;;;;;26.23;13.65;;;8.60;99.90;;;;;;4979862;28;20117;-63
2023/04/07 05:03:42;;;;;;;29.23;14.48;;;8.60;99.90;;;;;;4980596;28;20096;-63
2023/04/07 05:06:07;;;;;;;23.20;13.98;;;8.70;99.90;;;;;;4981067;28;20038;-63
2023/04/07 05:08:33;;;;;;;23.95;13.52;;;8.70;99.90;;;;;;4983994;28;20042;-63
2023/04/07 05:10:59;;;;;;;23.80;13.27;;;8.70;99.90;;;;;;4984049;28;20034;-63
2023/04/07 05:13:24;;;;;;;25.05;13.73;;;9.00;99.90;;;;;;4983355;28;20053;-63
2023/04/07 05:15:50;;;;;;;25.55;13.15;;;9.00;99.90;;;;;;4982365;28;20109;-63
2023/04/07 05:18:16;;;;;;;22.85;12.32;;;8.90;99.90;;;;;;4980438;28;20039;-63
2023/04/07 05:20:43;;;;;;;26.20;13.40;;;8.80;99.90;;;;;;4984040;28;20045;-63
2023/04/07 05:23:09;;;;;;;22.88;11.52;;;8.80;99.90;;;;;;4983143;28;20062;-63
2023/04/07 05:25:34;;;;;;;22.98;12.23;;;8.70;99.90;;;;;;4982538;28;20097;-63
2023/04/07 05:28:00;;;;;;;25.77;12.00;;;8.60;99.90;;;;;;4982222;28;20574;-63
2023/04/07 05:30:25;;;;;;;20.38;12.18;;;8.70;99.90;;;;;;4979805;28;20035;-63
2023/04/07 05:32:52;;;;;;;26.27;12.93;;;8.70;99.90;;;;;;4982824;28;20226;-63
2023/04/07 05:35:17;;;;;;;26.58;12.10;;;8.60;99.90;;;;;;4982034;28;20043;-63
2023/04/07 05:37:43;;;;;;;21.60;11.32;;;8.60;99.90;;;;;;4982980;28;20673;-63
2023/04/07 05:40:09;;;;;;;24.65;12.07;;;8.50;99.90;;;;;;4978987;28;20030;-63
2023/04/07 05:42:35;;;;;;;22.13;10.48;;;8.60;99.90;;;;;;4983748;28;20105;-63
2023/04/07 05:45:00;;;;;;;21.77;11.68;;;8.50;99.90;;;;;;4981936;28;20031;-63
2023/04/07 05:47:26;;;;;;;20.35;11.63;;;8.50;99.90;;;;;;4981907;28;20047;-63
2023/04/07 05:49:52;;;;;;;21.98;11.50;;;8.50;99.90;;;;;;4980790;28;20353;-63
2023/04/07 05:52:17;;;;;;;23.45;12.38;;;8.60;99.90;;;;;;4979704;28;20038;-63
2023/04/07 05:54:43;;;;;;;18.23;10.52;;;8.60;99.90;;;;;;4982404;28;20057;-63
2023/04/07 05:57:08;;;;;;;22.27;12.07;;;8.50;99.90;;;;;;4980230;28;20045;-63
2023/04/07 05:59:35;;;;;;;18.17;10.68;;;8.60;99.90;;;;;;4982467;28;20022;-63
2023/04/07 06:02:02;;;;;;;25.15;10.90;;;8.50;99.90;;;;;;4979369;28;20046;-63
2023/04/07 06:04:27;;;;;;;20.15;10.73;;;8.50;99.90;;;;;;4982808;28;20133;-63
2023/04/07 06:06:54;;;;;;;19.58;10.05;;;8.60;99.90;;;;;;4978261;28;20292;-63
2023/04/07 06:09:23;;;;;;;20.63;11.00;;;8.50;99.90;;;;;;4977589;28;20034;-63
2023/04/07 06:11:49;;;;;;;16.83;10.25;;;8.60;99.90;;;;;;4979931;28;20038;-63
2023/04/07 06:14:16;;;;;;;21.80;10.50;;;8.60;99.90;;;;;;4980359;28;20185;-65
2023/04/07 06:16:41;;;;;;;17.33;9.27;;;8.50;99.90;;;;;;4981062;28;20040;-65
2023/04/07 06:19:07;;;;;;;20.13;10.57;;;8.60;99.90;;;;;;4981570;28;20026;-65
2023/04/07 06:21:32;;;;;;;26.23;11.57;;;8.50;99.90;;;;;;4979306;28;20034;-65
2023/04/07 06:23:58;;;;;;;22.95;11.30;;;8.50;99.90;;;;;;4980406;28;20104;-65
2023/04/07 06:26:24;;;;;;;21.02;11.80;;;8.50;99.90;;;;;;4979049;28;20035;-65
2023/04/07 06:28:50;;;;;;;19.27;11.05;;;8.60;99.90;;;;;;4977759;28;20141;-65
2023/04/07 06:31:17;;;;;;;22.20;11.18;;;8.90;99.90;;;;;;4980248;28;20030;-65
2023/04/07 06:33:43;;;;;;;23.30;11.45;;;8.70;99.90;;;;;;4982140;28;20133;-65
2023/04/07 06:36:08;;;;;;;22.13;12.45;;;8.70;99.90;;;;;;4984057;28;20113;-65
2023/04/07 06:38:34;;;;;;;21.05;11.77;;;8.70;99.90;;;;;;4985555;28;20062;-65
2023/04/07 06:40:59;;;;;;;21.88;11.90;;;8.80;99.90;;;;;;4985954;28;20065;-65
2023/04/07 06:43:25;;;;;;;22.17;12.38;;;8.90;99.90;;;;;;4986701;28;20117;-65
2023/04/07 06:45:51;;;;;;;20.98;12.55;;;9.00;99.90;;;;;;4983829;28;20058;-65
2023/04/07 06:48:16;;;;;;;24.63;12.85;;;9.00;99.90;;;;;;4984987;28;20041;-65
2023/04/07 06:50:46;;;;;;;24.13;13.23;;;8.90;99.90;;;;;;4986121;28;20034;-65
2023/04/07 06:53:11;;;;;;;26.60;13.43;;;8.80;99.90;;;;;;4983475;28;20030;-64
2023/04/07 06:55:37;;;;;;;27.63;13.40;;;8.70;99.90;;;;;;4982829;28;20038;-64
2023/04/07 06:58:02;;;;;;;27.52;13.77;;;8.70;99.90;;;;;;4983384;28;20038;-64
2023/04/07 07:00:29;;;;;;;27.23;13.48;;;8.80;99.90;;;;;;4986299;28;20180;-65
2023/04/07 07:02:55;;;;;;;32.85;15.15;;;8.80;99.90;;;;;;4985054;28;20525;-65
2023/04/07 07:05:22;;;;;;;26.80;14.35;;;8.90;99.90;;;;;;4985572;28;22300;-64
2023/04/07 07:07:48;;;;;;;30.23;14.38;;;8.80;99.90;;;;;;4983800;28;20493;-64
2023/04/07 07:10:14;;;;;;;25.15;13.55;;;9.00;99.90;;;;;;4982612;28;20034;-64
2023/04/07 07:12:39;;;;;;;30.60;14.68;;;9.00;99.90;;;;;;4986129;28;20164;-64
2023/04/07 07:15:06;;;;;;;30.10;15.15;;;9.00;99.90;;;;;;4985309;28;20054;-64
2023/04/07 07:17:31;;;;;;;27.05;14.90;;;9.00;99.90;;;;;;4984157;28;20054;-64
2023/04/07 07:19:57;;;;;;;28.15;15.85;;;9.00;99.90;;;;;;4985600;28;20096;-65
2023/04/07 07:22:22;;;;;;;24.58;14.07;;;9.00;99.90;;;;;;4981914;28;20060;-65
2023/04/07 07:24:48;;;;;;;30.40;15.00;;;9.10;99.90;;;;;;4981978;28;20471;-65
2023/04/07 07:27:14;;;;;;;29.77;15.10;;;9.20;99.90;;;;;;4985091;28;20045;-64
2023/04/07 07:29:40;;;;;;;34.25;16.30;;;9.30;99.90;;;;;;4983232;28;20026;-64
2023/04/07 07:32:06;;;;;;;31.70;15.90;;;9.10;99.90;;;;;;4978129;28;20097;-65
2023/04/07 07:34:31;;;;;;;31.92;16.65;;;9.10;99.90;;;;;;4977760;28;20433;-64
2023/04/07 07:36:58;;;;;;;31.42;15.25;;;9.10;99.90;;;;;;4985732;28;20065;-64
2023/04/07 07:39:24;;;;;;;29.83;16.38;;;9.00;99.90;;;;;;4983525;28;20447;-64
2023/04/07 07:41:50;;;;;;;33.92;16.02;;;9.10;99.90;;;;;;4983608;28;20117;-64
2023/04/07 07:44:18;;;;;;;36.30;16.08;;;9.20;99.90;;;;;;4978027;28;20125;-65
2023/04/07 07:46:44;;;;;;;31.88;17.35;;;9.30;99.90;;;;;;4977129;28;20053;-65
2023/04/07 07:49:10;;;;;;;29.60;16.30;;;9.30;99.90;;;;;;4976968;28;20030;-64
2023/04/07 07:51:36;;;;;;;33.15;16.77;;;9.20;99.90;;;;;;4979956;28;20252;-66
2023/04/07 07:54:02;;;;;;;39.30;17.92;;;9.50;99.90;;;;;;4980990;28;20038;-63
2023/04/07 07:56:27;;;;;;;30.85;16.63;;;9.40;99.90;;;;;;4984267;28;20141;-65
2023/04/07 07:58:53;;;;;;;28.38;16.15;;;9.40;99.90;;;;;;4979133;28;20104;-64
2023/04/07 08:01:19;;;;;;;31.70;16.50;;;9.30;99.90;;;;;;4980121;28;20373;-65
2023/04/07 08:03:45;;;;;;;31.65;17.20;;;9.40;99.90;;;;;;4982142;28;20471;-65
2023/04/07 08:06:11;;;;;;;33.78;16.80;;;9.30;99.90;;;;;;4981154;28;20049;-64
2023/04/07 08:08:37;;;;;;;35.22;16.88;;;9.30;99.90;;;;;;4983039;28;21126;-63
2023/04/07 08:11:03;;;;;;;31.30;16.17;;;9.50;99.90;;;;;;4979020;28;20043;-63
2023/04/07 08:13:28;;;;;;;31.65;16.42;;;9.50;99.90;;;;;;4981805;28;20034;-63
2023/04/07 08:15:54;;;;;;;28.83;16.63;;;9.60;99.90;;;;;;4980305;28;20040;-63
2023/04/07 08:18:20;;;;;;;32.53;16.88;;;9.50;99.90;;;;;;4977911;28;20113;-63
2023/04/07 08:20:45;;;;;;;30.92;15.57;;;9.50;99.90;;;;;;4978768;28;20030;-63
2023/04/07 08:23:11;;;;;;;32.35;17.02;;;9.40;99.90;;;;;;4983406;28;20126;-63
2023/04/07 08:25:38;;;;;;;35.20;16.98;;;9.30;99.90;;;;;;4977317;28;20506;-65
2023/04/07 08:28:05;;;;;;;31.20;15.75;;;9.50;99.90;;;;;;4983018;28;20069;-63
2023/04/07 08:30:31;;;;;;;32.05;17.20;;;9.60;99.90;;;;;;4979235;28;20034;-64
2023/04/07 08:32:56;;;;;;;29.67;16.42;;;9.70;99.90;;;;;;4976761;28;20054;-64
2023/04/07 08:35:22;;;;;;;37.60;17.10;;;9.70;99.90;;;;;;4972596;28;20054;-64
2023/04/07 08:37:48;;;;;;;32.05;16.80;;;9.50;99.90;;;;;;4982998;28;20085;-64
2023/04/07 08:40:14;;;;;;;38.03;18.17;;;9.70;99.90;;;;;;4979649;28;20040;-63
2023/04/07 08:42:42;;;;;;;35.00;17.52;;;9.70;99.90;;;;;;4982879;28;20034;-64
2023/04/07 08:45:08;;;;;;;34.70;18.60;;;9.70;99.90;;;;;;4981977;28;20785;-64
2023/04/07 08:47:35;;;;;;;35.70;19.55;;;9.90;99.90;;;;;;4980528;28;20043;-64
2023/04/07 08:50:03;;;;;;;35.58;19.15;;;10.10;99.90;;;;;;4984430;28;20034;-64
2023/04/07 08:52:38;;;;;;;39.22;19.02;;;10.00;99.90;;;;;;4981818;28;20416;-64
2023/04/07 08:55:05;;;;;;;37.80;20.52;;;10.10;99.90;;;;;;4985827;28;20507;-64
2023/04/07 08:57:32;;;;;;;38.58;19.88;;;10.20;99.90;;;;;;4984265;28;20401;-64
2023/04/07 09:00:05;;;;;;;41.58;20.90;;;10.00;99.90;;;;;;4986050;28;20038;-64
2023/04/07 09:02:46;;;;;;;35.08;19.30;;;10.00;99.90;;;;;;4985307;28;20042;-64
2023/04/07 09:05:15;;;;;;;40.58;19.23;;;10.10;99.90;;;;;;4985180;28;20121;-64
2023/04/07 09:07:44;;;;;;;35.25;19.48;;;10.10;99.90;;;;;;4981086;28;20558;-64
2023/04/07 09:10:10;;;;;;;37.05;20.05;;;10.00;99.90;;;;;;4985528;28;20038;-68
2023/04/07 09:12:37;;;;;;;36.53;20.25;;;10.10;99.90;;;;;;4986398;28;20481;-64
2023/04/07 09:15:05;;;;;;;36.72;19.55;;;10.10;99.90;;;;;;4982898;28;20053;-64
2023/04/07 09:17:31;;;;;;;39.80;19.98;;;10.20;99.90;;;;;;4985617;28;20061;-64
2023/04/07 09:20:00;;;;;;;47.35;22.58;;;10.30;99.90;;;;;;4985643;28;20086;-67
2023/04/07 09:22:41;;;;;;;40.15;21.52;;;10.30;99.90;;;;;;4982286;28;20038;-66
2023/04/07 09:25:28;;;;;;;43.08;21.13;;;10.30;99.90;;;;;;4983013;28;20034;-65
2023/04/07 09:28:02;;;;;;;38.15;20.00;;;10.80;99.90;;;;;;4984458;28;20360;-65
2023/04/07 09:30:32;;;;;;;36.63;20.77;;;10.60;99.90;;;;;;4984693;28;21280;-65
2023/04/07 09:32:58;;;;;;;41.78;20.65;;;10.50;99.90;;;;;;4983746;28;20050;-60
2023/04/07 09:35:27;;;;;;;32.72;19.38;;;10.40;99.90;;;;;;4982139;28;20039;-60
2023/04/07 09:38:08;;;;;;;31.55;19.05;;;10.30;99.90;;;;;;4981454;28;20046;-60
2023/04/07 09:40:35;;;;;;;27.70;18.45;;;10.20;99.90;;;;;;4981461;28;20133;-60
2023/04/07 09:43:03;;;;;;;33.70;19.10;;;10.30;99.90;;;;;;4982793;28;20041;-60
2023/04/07 09:45:34;;;;;;;31.23;18.40;;;10.30;99.90;;;;;;4974769;28;20168;-60
2023/04/07 09:48:07;;;;;;;32.63;19.70;;;10.20;99.90;;;;;;4982565;28;20038;-60
2023/04/07 09:50:34;;;;;;;28.92;17.48;;;10.30;99.90;;;;;;4981073;28;20130;-60
2023/04/07 09:53:01;;;;;;;31.67;17.05;;;10.20;99.90;;;;;;4984410;28;20125;-60
2023/04/07 09:55:28;;;;;;;28.60;17.55;;;10.20;99.90;;;;;;4984222;28;20045;-60
2023/04/07 09:57:54;;;;;;;28.17;15.82;;;10.30;99.90;;;;;;4985068;28;20093;-60
2023/04/07 10:00:21;;;;;;;30.73;15.75;;;10.30;99.90;;;;;;4981619;28;20034;-60
2023/04/07 10:02:48;;;;;;;27.20;15.73;;;10.20;99.90;;;;;;4984645;28;20042;-60
2023/04/07 10:05:14;;;;;;;29.52;15.65;;;10.00;99.90;;;;;;4979696;28;20041;-60
2023/04/07 10:07:39;;;;;;;24.02;15.50;;;10.10;99.90;;;;;;4980576;28;20489;-60
2023/04/07 10:10:07;;;;;;;23.70;15.85;;;10.20;99.90;;;;;;4986181;28;20037;-60
2023/04/07 10:12:35;;;;;;;27.20;15.65;;;10.10;99.90;;;;;;4989577;28;20046;-60
2023/04/07 10:15:01;;;;;;;24.98;15.52;;;10.20;99.90;;;;;;4985748;28;20038;-60
2023/04/07 10:17:27;;;;;;;26.60;14.63;;;9.80;99.90;;;;;;4987859;28;20153;-60
2023/04/07 10:19:55;;;;;;;22.10;14.05;;;9.80;99.90;;;;;;4988578;28;20179;-60
2023/04/07 10:22:21;;;;;;;26.02;15.23;;;9.60;99.90;;;;;;4986046;28;20046;-60
2023/04/07 10:25:03;;;;;;;28.35;15.45;;;10.00;99.90;;;;;;4987026;28;20057;-60
2023/04/07 10:27:33;;;;;;;23.15;14.20;;;10.30;99.90;;;;;;4986262;28;20034;-60
2023/04/07 10:30:00;;;;;;;25.30;15.10;;;10.50;99.90;;;;;;4987813;28;20105;-60
2023/04/07 10:32:25;;;;;;;25.20;14.60;;;10.30;99.90;;;;;;4986258;28;20646;-60
2023/04/07 10:34:54;;;;;;;20.05;14.48;;;10.40;99.90;;;;;;4984304;28;20038;-60
2023/04/07 10:37:21;;;;;;;25.80;14.48;;;10.20;99.90;;;;;;4985043;28;20030;-60
2023/04/07 10:40:10;;;;;;;20.88;13.93;;;9.90;99.90;;;;;;4988965;28;20173;-60
2023/04/07 10:42:35;;;;;;;31.80;15.07;;;10.00;99.90;;;;;;4985018;28;20042;-60
2023/04/07 10:45:02;;;;;;;26.33;16.10;;;10.10;99.90;;;;;;4988504;28;20041;-60
2023/04/07 10:47:28;;;;;;;26.50;16.15;;;10.20;99.90;;;;;;4986649;28;20042;-60
2023/04/07 10:50:24;;;;;;;29.52;16.55;;;10.10;99.90;;;;;;4987840;28;20041;-60
2023/04/07 10:53:07;;;;;;;24.50;15.82;;;9.80;99.90;;;;;;4969684;28;20039;-59
2023/04/07 10:56:00;;;;;;;29.08;17.10;;;9.50;99.90;;;;;;4984890;28;20057;-60
2023/04/07 10:58:28;;;;;;;38.70;17.23;;;9.60;99.90;;;;;;4982669;28;20098;-60
2023/04/07 11:01:02;;;;;;;27.52;16.25;;;9.70;99.90;;;;;;4987859;28;20106;-60
2023/04/07 11:03:35;;;;;;;30.88;17.80;;;9.40;99.90;;;;;;4981787;28;20506;-60
2023/04/07 11:06:05;;;;;;;31.77;19.13;;;9.00;99.90;;;;;;4987995;28;20093;-60
2023/04/07 11:08:35;;;;;;;30.17;17.90;;;9.50;99.90;;;;;;4986219;28;20050;-59
2023/04/07 11:11:01;;;;;;;25.23;17.05;;;9.50;99.90;;;;;;4987931;28;20053;-59
2023/04/07 11:13:26;;;;;;;29.17;17.52;;;9.40;99.90;;;;;;4986270;28;20839;-60
2023/04/07 11:15:52;;;;;;;31.85;17.20;;;9.50;99.90;;;;;;4984852;28;20121;-59
2023/04/07 11:18:20;;;;;;;30.48;18.55;;;9.60;99.90;;;;;;4984251;28;20133;-60
2023/04/07 11:20:47;;;;;;;25.15;16.63;;;9.60;99.90;;;;;;4986521;28;20142;-60
2023/04/07 11:23:14;;;;;;;27.35;16.30;;;9.50;99.90;;;;;;4984099;28;20057;-60
2023/04/07 11:25:44;;;;;;;25.90;16.35;;;9.80;99.90;;;;;;4981483;28;20054;-59
2023/04/07 11:28:12;;;;;;;28.63;16.42;;;9.90;99.90;;;;;;4985102;28;20037;-60
2023/04/07 11:30:43;;;;;;;25.73;16.70;;;10.10;99.90;;;;;;4980452;28;20038;-60
2023/04/07 11:33:13;;;;;;;24.30;16.00;;;10.80;99.90;;;;;;4982783;28;20063;-60
2023/04/07 11:35:46;;;;;;;23.27;15.43;;;10.30;99.90;;;;;;4982342;28;20041;-60
2023/04/07 11:38:12;;;;;;;24.60;15.15;;;10.20;99.90;;;;;;4983798;28;20042;-60
2023/04/07 11:40:38;;;;;;;32.03;15.27;;;10.10;99.90;;;;;;4984390;28;20035;-59
2023/04/07 11:43:22;;;;;;;25.88;15.93;;;10.00;99.90;;;;;;4983840;28;20128;-60
2023/04/07 11:46:06;;;;;;;23.92;15.48;;;10.00;99.90;;;;;;4982178;28;20038;-58
2023/04/07 11:48:34;;;;;;;28.77;15.40;;;10.00;99.90;;;;;;4980325;28;20043;-58
2023/04/07 11:51:01;;;;;;;25.88;14.95;;;9.80;99.90;;;;;;4987588;28;20030;-58
2023/04/07 11:53:27;;;;;;;24.77;15.10;;;9.90;99.90;;;;;;4981345;28;20470;-58
2023/04/07 11:56:05;;;;;;;27.38;16.38;;;10.00;99.90;;;;;;4983696;28;20208;-58
2023/04/07 11:58:31;;;;;;;28.95;15.10;;;10.10;99.90;;;;;;4985560;28;20054;-58
2023/04/07 12:01:02;;;;;;;28.67;15.52;;;10.00;99.90;;;;;;4984764;28;20406;-58
2023/04/07 12:03:28;;;;;;;25.33;14.82;;;10.10;99.90;;;;;;4986295;28;20077;-58
2023/04/07 12:05:54;;;;;;;23.35;15.77;;;10.10;99.90;;;;;;4987567;28;20061;-59
2023/04/07 12:08:20;;;;;;;26.65;15.93;;;10.10;99.90;;;;;;4982132;28;20026;-59
2023/04/07 12:10:46;;;;;;;25.80;15.90;;;10.30;99.90;;;;;;4981783;28;20041;-59
2023/04/07 12:13:12;;;;;;;23.40;15.68;;;10.60;99.90;;;;;;4983203;28;20039;-59
2023/04/07 12:15:38;;;;;;;22.60;15.18;;;10.40;99.90;;;;;;4982470;28;20325;-59
2023/04/07 12:18:04;;;;;;;23.25;15.63;;;10.60;99.90;;;;;;4982773;28;20113;-58
2023/04/07 12:20:30;;;;;;;29.73;16.90;;;10.80;99.90;;;;;;4984787;28;20038;-59
2023/04/07 12:22:56;;;;;;;24.95;14.65;;;10.80;99.90;;;;;;4986056;28;20034;-59
2023/04/07 12:25:22;;;;;;;26.75;15.07;;;10.60;99.90;;;;;;4981645;28;20501;-59
2023/04/07 12:27:47;;;;;;;20.13;13.38;;;10.30;99.90;;;;;;4983969;28;20110;-59
2023/04/07 12:30:13;;;;;;;19.35;13.50;;;10.70;99.90;;;;;;4983792;28;20081;-59
2023/04/07 12:32:39;;;;;;;23.15;14.35;;;10.60;99.90;;;;;;4978545;28;20035;-59
2023/04/07 12:35:05;;;;;;;20.08;13.60;;;10.80;99.90;;;;;;4980067;28;20631;-59
2023/04/07 12:37:31;;;;;;;18.55;12.90;;;10.80;99.90;;;;;;4979068;28;20049;-59